Time;durP1;ratioP1;P1;durP2;ratioP2;P2;SDS_P1;SDS_P2;PMS_P1;PMS_P2;Temp;Humidity;BMP_temperature;BMP_pressure;BME280_temperature;BME280_humidity;BME280_pressure;Samples;Min_cycle;Max_cycle;Signal;HPM_P1;HPM_P2
2023/06/17 00:02:07;;;;;;;5.40;3.30;;;24.20;50.30;;;;;;5072312;28;20045;-75
2023/06/17 00:04:33;;;;;;;5.07;3.50;;;24.20;50.40;;;;;;5072936;28;20044;-74
2023/06/17 00:06:59;;;;;;;5.30;3.55;;;24.20;50.40;;;;;;5072424;28;20044;-74
2023/06/17 00:09:25;;;;;;;4.72;3.30;;;24.20;50.50;;;;;;5073792;28;20048;-75
2023/06/17 00:11:51;;;;;;;4.57;3.15;;;24.20;50.50;;;;;;5073505;28;20040;-75
2023/06/17 00:14:17;;;;;;;4.60;3.42;;;24.20;50.50;;;;;;5073740;28;20055;-75
2023/06/17 00:16:43;;;;;;;4.65;3.53;;;24.20;50.60;;;;;;5073983;28;20044;-75
2023/06/17 00:19:15;;;;;;;7.45;3.90;;;24.10;50.50;;;;;;5072578;28;20056;-75
2023/06/17 00:21:49;;;;;;;4.82;2.92;;;24.20;50.60;;;;;;5072160;28;20071;-75
2023/06/17 00:24:15;;;;;;;5.15;3.28;;;24.10;50.60;;;;;;5071826;28;20076;-75
2023/06/17 00:26:41;;;;;;;5.35;3.50;;;24.10;50.60;;;;;;5073262;28;20041;-75
2023/06/17 00:29:06;;;;;;;5.18;3.40;;;24.10;50.60;;;;;;5073187;28;20052;-75
2023/06/17 00:31:32;;;;;;;5.93;3.53;;;24.10;50.70;;;;;;5072017;28;20056;-75
2023/06/17 00:33:58;;;;;;;5.63;3.35;;;24.10;50.70;;;;;;5072744;28;20059;-75
2023/06/17 00:36:23;;;;;;;4.55;3.15;;;24.10;50.70;;;;;;5071785;28;20048;-75
2023/06/17 00:38:50;;;;;;;4.82;3.28;;;24.10;50.70;;;;;;5073530;28;20041;-75
2023/06/17 00:41:15;;;;;;;4.85;3.10;;;24.10;50.70;;;;;;5071210;28;20113;-75
2023/06/17 00:43:41;;;;;;;3.80;2.90;;;24.10;50.80;;;;;;5073283;28;20037;-75
2023/06/17 00:46:07;;;;;;;5.00;3.22;;;24.10;50.90;;;;;;5073036;28;20124;-74
2023/06/17 00:48:32;;;;;;;6.15;3.28;;;24.10;50.80;;;;;;5054828;28;20511;-75
2023/06/17 00:51:02;;;;;;;5.00;3.05;;;24.10;50.90;;;;;;5034778;28;20041;-75
2023/06/17 00:53:31;;;;;;;5.40;3.42;;;24.10;50.90;;;;;;5035583;28;20049;-75
2023/06/17 00:55:58;;;;;;;3.83;2.95;;;24.10;50.90;;;;;;5080965;28;20101;-75
2023/06/17 00:58:26;;;;;;;5.30;3.40;;;24.10;50.90;;;;;;5071784;28;20040;-75
2023/06/17 01:00:51;;;;;;;5.05;2.90;;;24.10;51.00;;;;;;5054377;28;20040;-75
2023/06/17 01:03:17;;;;;;;4.45;3.10;;;24.00;50.90;;;;;;5072780;28;20438;-75
2023/06/17 01:05:45;;;;;;;6.03;3.40;;;24.00;50.90;;;;;;5071250;28;20044;-75
2023/06/17 01:08:19;;;;;;;6.35;3.10;;;24.00;51.00;;;;;;5071748;28;20067;-75
2023/06/17 01:11:01;;;;;;;4.57;3.20;;;24.00;51.00;;;;;;5055417;28;20102;-75
2023/06/17 01:13:27;;;;;;;4.53;3.13;;;24.00;51.00;;;;;;5072006;28;20040;-75
2023/06/17 01:15:52;;;;;;;3.80;3.08;;;24.00;51.10;;;;;;5070493;28;20130;-75
2023/06/17 01:18:18;;;;;;;4.45;2.92;;;24.00;51.10;;;;;;5054303;28;20085;-75
2023/06/17 01:20:45;;;;;;;4.25;3.28;;;24.00;51.20;;;;;;5034574;28;20049;-75
2023/06/17 01:23:10;;;;;;;4.68;3.10;;;24.00;51.10;;;;;;5050616;28;20056;-75
2023/06/17 01:25:37;;;;;;;4.47;3.13;;;24.00;51.20;;;;;;5059484;28;20033;-75
2023/06/17 01:28:15;;;;;;;5.60;3.20;;;24.00;51.20;;;;;;5054379;28;20412;-75
2023/06/17 01:30:41;;;;;;;4.68;3.28;;;24.00;51.20;;;;;;5070847;28;20044;-74
2023/06/17 01:33:06;;;;;;;5.47;3.40;;;24.00;51.20;;;;;;5054210;28;20040;-74
2023/06/17 01:35:32;;;;;;;5.13;3.45;;;24.00;51.30;;;;;;5058723;28;20072;-75
2023/06/17 01:38:22;;;;;;;4.50;3.05;;;24.00;51.30;;;;;;5071430;28;20106;-75
2023/06/17 01:40:50;;;;;;;5.07;2.97;;;24.00;51.30;;;;;;5071308;28;20063;-75
2023/06/17 01:43:16;;;;;;;5.50;3.33;;;24.00;51.30;;;;;;5070224;28;20117;-74
2023/06/17 01:45:41;;;;;;;5.07;3.25;;;24.00;51.30;;;;;;5054345;28;20443;-75
2023/06/17 01:48:07;;;;;;;4.70;3.08;;;24.00;51.40;;;;;;5037626;28;20041;-75
2023/06/17 01:50:33;;;;;;;4.68;2.58;;;24.00;51.40;;;;;;5070390;28;20079;-74
2023/06/17 01:52:58;;;;;;;4.47;3.05;;;24.00;51.40;;;;;;5071976;28;20074;-74
2023/06/17 01:55:24;;;;;;;4.22;3.05;;;24.00;51.50;;;;;;5072451;28;20086;-74
2023/06/17 01:57:49;;;;;;;4.47;3.20;;;24.00;51.50;;;;;;5070300;28;20041;-73
2023/06/17 02:00:15;;;;;;;3.97;3.30;;;24.00;51.50;;;;;;5070293;28;20098;-74
2023/06/17 02:02:41;;;;;;;3.72;2.92;;;24.00;51.50;;;;;;5070582;28;20040;-76
2023/06/17 02:05:07;;;;;;;6.28;3.13;;;23.90;51.50;;;;;;5069145;28;20044;-75
2023/06/17 02:07:33;;;;;;;4.88;3.10;;;23.90;51.50;;;;;;5071064;28;20044;-75
2023/06/17 02:09:59;;;;;;;4.93;3.00;;;24.00;51.60;;;;;;5070312;28;20056;-75
2023/06/17 02:12:25;;;;;;;4.50;3.15;;;24.00;51.60;;;;;;5071485;28;20037;-75
2023/06/17 02:14:50;;;;;;;5.25;3.30;;;24.00;51.60;;;;;;5072563;28;20350;-76
2023/06/17 02:17:16;;;;;;;5.38;3.15;;;24.00;51.60;;;;;;5070270;28;20063;-75
2023/06/17 02:19:42;;;;;;;4.10;3.08;;;23.90;51.60;;;;;;5070914;28;20090;-75
2023/06/17 02:22:07;;;;;;;5.05;3.25;;;23.90;51.60;;;;;;5071514;28;20044;-75
2023/06/17 02:24:33;;;;;;;4.47;3.25;;;23.90;52.40;;;;;;5071039;28;20107;-75
2023/06/17 02:26:58;;;;;;;4.70;3.08;;;23.90;51.70;;;;;;5070710;28;20040;-76
2023/06/17 02:29:25;;;;;;;4.70;3.20;;;23.90;51.70;;;;;;5070609;28;20143;-76
2023/06/17 02:31:51;;;;;;;5.22;3.28;;;23.90;51.70;;;;;;5071828;28;20048;-75
2023/06/17 02:34:17;;;;;;;4.93;3.08;;;23.90;51.70;;;;;;5069548;28;20074;-75
2023/06/17 02:36:43;;;;;;;3.90;2.88;;;23.90;51.70;;;;;;5071980;28;20049;-75
2023/06/17 02:39:08;;;;;;;3.97;2.78;;;23.90;51.70;;;;;;5069687;28;20045;-75
2023/06/17 02:41:34;;;;;;;4.45;3.13;;;23.90;51.70;;;;;;5072058;28;20052;-75
2023/06/17 02:43:59;;;;;;;4.80;3.30;;;23.90;51.70;;;;;;5071715;28;20362;-75
2023/06/17 02:46:25;;;;;;;4.22;3.08;;;23.90;51.70;;;;;;5073452;28;20052;-75
2023/06/17 02:48:51;;;;;;;4.63;3.03;;;23.90;51.70;;;;;;5075449;28;20029;-75
2023/06/17 02:51:16;;;;;;;6.10;3.45;;;23.80;51.70;;;;;;5075371;28;20109;-75
2023/06/17 02:53:42;;;;;;;4.47;3.33;;;23.80;51.70;;;;;;5074811;28;20040;-75
2023/06/17 02:56:08;;;;;;;4.78;3.10;;;23.80;51.70;;;;;;5073941;28;20036;-75
2023/06/17 02:58:34;;;;;;;5.03;3.20;;;23.90;51.90;;;;;;5074458;28;20055;-75
2023/06/17 03:00:59;;;;;;;5.25;3.55;;;23.80;51.80;;;;;;5074298;28;20484;-74
2023/06/17 03:03:34;;;;;;;5.00;3.20;;;23.80;51.90;;;;;;5075456;28;20063;-75
2023/06/17 03:06:07;;;;;;;4.38;3.00;;;23.90;52.00;;;;;;5074977;28;20040;-75
2023/06/17 03:08:33;;;;;;;5.43;3.05;;;23.90;52.00;;;;;;5072958;28;20086;-75
2023/06/17 03:10:59;;;;;;;4.50;3.25;;;23.90;51.90;;;;;;5073415;28;20036;-75
2023/06/17 03:13:28;;;;;;;4.88;2.97;;;23.80;51.90;;;;;;5075346;28;20044;-75
2023/06/17 03:15:58;;;;;;;4.70;3.10;;;23.80;51.90;;;;;;5074048;28;20048;-75
2023/06/17 03:18:24;;;;;;;5.22;3.35;;;23.80;51.90;;;;;;5073730;28;20048;-75
2023/06/17 03:20:50;;;;;;;5.72;3.35;;;23.80;51.90;;;;;;5074646;28;20105;-72
2023/06/17 03:23:15;;;;;;;4.47;3.08;;;23.80;52.00;;;;;;5073906;28;20427;-75
2023/06/17 03:25:42;;;;;;;4.60;3.00;;;23.80;52.00;;;;;;5073450;28;20396;-75
2023/06/17 03:28:08;;;;;;;5.38;3.25;;;23.80;52.00;;;;;;5074492;28;20056;-75
2023/06/17 03:30:33;;;;;;;4.80;2.90;;;23.80;52.00;;;;;;5074059;28;20063;-75
2023/06/17 03:32:59;;;;;;;6.32;3.33;;;23.80;52.00;;;;;;5072030;28;20097;-75
2023/06/17 03:35:25;;;;;;;4.68;3.55;;;23.80;52.00;;;;;;5072449;28;20048;-75
2023/06/17 03:37:50;;;;;;;4.97;3.45;;;23.80;52.00;;;;;;5074625;28;20037;-75
2023/06/17 03:40:16;;;;;;;4.22;3.05;;;23.80;52.00;;;;;;5074162;28;20190;-75
2023/06/17 03:42:41;;;;;;;4.70;3.35;;;23.80;52.00;;;;;;5072582;28;20067;-75
2023/06/17 03:45:07;;;;;;;5.07;3.25;;;23.80;52.00;;;;;;5072773;28;20097;-75
2023/06/17 03:47:33;;;;;;;5.35;3.00;;;23.80;52.10;;;;;;5074362;28;20040;-75
2023/06/17 03:49:59;;;;;;;3.85;2.92;;;23.80;52.10;;;;;;5072162;28;20081;-75
2023/06/17 03:52:25;;;;;;;4.13;3.00;;;23.80;52.10;;;;;;5073154;28;20088;-75
2023/06/17 03:54:50;;;;;;;5.78;3.83;;;23.80;52.10;;;;;;5072920;28;20561;-76
2023/06/17 03:57:16;;;;;;;4.57;2.95;;;23.70;52.10;;;;;;5072838;28;20376;-75
2023/06/17 03:59:42;;;;;;;4.60;3.28;;;23.80;52.10;;;;;;5072752;28;20036;-75
2023/06/17 04:02:07;;;;;;;4.82;3.28;;;23.70;52.10;;;;;;5073353;28;20079;-75
2023/06/17 04:04:34;;;;;;;4.68;3.15;;;23.70;52.10;;;;;;5072581;28;20070;-74
2023/06/17 04:07:04;;;;;;;4.93;3.55;;;23.70;52.10;;;;;;5073155;28;20102;-75
2023/06/17 04:09:29;;;;;;;4.80;3.25;;;23.70;52.10;;;;;;5073938;28;20123;-75
2023/06/17 04:11:55;;;;;;;4.72;3.38;;;23.70;52.20;;;;;;5073274;28;20123;-75
2023/06/17 04:14:20;;;;;;;4.80;3.40;;;23.70;52.10;;;;;;5072212;28;20044;-75
2023/06/17 04:16:46;;;;;;;4.50;3.10;;;23.70;52.20;;;;;;5072709;28;20051;-75
2023/06/17 04:19:13;;;;;;;4.43;3.30;;;23.70;52.20;;;;;;5072988;28;20094;-75
2023/06/17 04:21:39;;;;;;;4.20;3.13;;;23.70;52.20;;;;;;5072268;28;20101;-74
2023/06/17 04:24:05;;;;;;;5.10;3.20;;;23.70;52.20;;;;;;5072445;28;20093;-75
2023/06/17 04:26:30;;;;;;;4.78;3.33;;;23.70;52.20;;;;;;5071536;28;20044;-75
2023/06/17 04:28:56;;;;;;;4.30;3.10;;;23.70;52.20;;;;;;5063947;28;20049;-75
2023/06/17 04:31:22;;;;;;;4.38;3.05;;;23.70;52.20;;;;;;5069358;28;20044;-74
2023/06/17 04:33:48;;;;;;;4.25;3.10;;;23.70;52.30;;;;;;5071599;28;20044;-74
2023/06/17 04:36:14;;;;;;;4.55;3.40;;;23.70;52.30;;;;;;5072684;28;20040;-74
2023/06/17 04:38:39;;;;;;;4.10;3.20;;;23.70;52.30;;;;;;5071659;28;20041;-74
2023/06/17 04:41:05;;;;;;;4.82;3.47;;;23.70;52.30;;;;;;5073211;28;20495;-74
2023/06/17 04:43:33;;;;;;;4.28;3.30;;;23.70;52.30;;;;;;5072017;28;20040;-74
2023/06/17 04:46:00;;;;;;;4.60;3.27;;;23.70;52.40;;;;;;5071382;28;20049;-74
2023/06/17 04:48:28;;;;;;;4.10;2.97;;;23.70;52.40;;;;;;5072156;28;20476;-75
2023/06/17 04:50:58;;;;;;;4.35;3.47;;;23.70;52.40;;;;;;5072561;28;20727;-74
2023/06/17 04:53:24;;;;;;;4.85;3.45;;;23.70;52.40;;;;;;5072656;28;20055;-74
2023/06/17 04:55:50;;;;;;;5.07;3.45;;;23.70;52.40;;;;;;5071429;28;20055;-75
2023/06/17 04:58:16;;;;;;;5.65;3.25;;;23.70;52.40;;;;;;5072781;28;21030;-74
2023/06/17 05:00:42;;;;;;;5.07;3.25;;;23.70;52.50;;;;;;5072262;28;20538;-74
2023/06/17 05:03:07;;;;;;;4.43;3.30;;;23.70;52.50;;;;;;5072612;28;20039;-74
2023/06/17 05:05:33;;;;;;;4.78;3.40;;;23.70;52.50;;;;;;5055100;28;20056;-75
2023/06/17 05:07:58;;;;;;;3.85;2.92;;;23.70;52.50;;;;;;5070513;28;20041;-75
2023/06/17 05:10:24;;;;;;;4.75;3.42;;;23.60;52.40;;;;;;5072081;28;20040;-75
2023/06/17 05:12:49;;;;;;;4.65;3.20;;;23.60;52.40;;;;;;5071593;28;20442;-66
2023/06/17 05:15:15;;;;;;;11.30;8.85;;;23.60;52.40;;;;;;5071653;28;20127;-65
2023/06/17 05:17:41;;;;;;;15.60;12.38;;;23.60;52.50;;;;;;5071621;28;20055;-66
2023/06/17 05:20:07;;;;;;;16.60;11.63;;;23.50;52.70;;;;;;5070889;28;20044;-67
2023/06/17 05:22:33;;;;;;;16.77;11.57;;;23.40;53.00;;;;;;5072152;28;20075;-66
2023/06/17 05:24:58;;;;;;;23.33;13.00;;;23.30;53.20;;;;;;5071150;28;20080;-66
2023/06/17 05:27:24;;;;;;;19.00;12.63;;;23.20;53.50;;;;;;5061514;28;20045;-66
2023/06/17 05:29:50;;;;;;;18.52;12.63;;;23.10;53.80;;;;;;5066368;28;20049;-66
2023/06/17 05:32:15;;;;;;;20.33;13.45;;;23.00;54.10;;;;;;5069388;28;20119;-66
2023/06/17 05:34:41;;;;;;;19.63;12.85;;;22.90;54.30;;;;;;5072883;28;20047;-66
2023/06/17 05:37:07;;;;;;;19.15;13.57;;;22.80;54.50;;;;;;5053389;28;20048;-66
2023/06/17 05:39:32;;;;;;;18.27;13.05;;;22.70;54.80;;;;;;5059539;28;20047;-66
2023/06/17 05:41:58;;;;;;;18.25;11.80;;;22.60;55.00;;;;;;5071629;28;20040;-66
2023/06/17 05:44:23;;;;;;;18.88;12.60;;;22.60;55.20;;;;;;5071422;28;20055;-66
2023/06/17 05:46:49;;;;;;;21.63;14.38;;;22.60;55.30;;;;;;5072262;28;20051;-67
2023/06/17 05:49:15;;;;;;;19.60;12.80;;;22.50;55.40;;;;;;5071646;28;20101;-75
2023/06/17 05:51:41;;;;;;;15.65;10.90;;;22.50;55.60;;;;;;5072519;28;20169;-75
2023/06/17 05:54:06;;;;;;;15.77;9.35;;;22.40;55.50;;;;;;5071582;28;20076;-68
2023/06/17 05:56:32;;;;;;;15.70;9.77;;;22.50;55.50;;;;;;5072886;28;20052;-75
2023/06/17 05:58:58;;;;;;;13.63;9.10;;;22.50;55.40;;;;;;5074049;28;20040;-72
2023/06/17 06:01:23;;;;;;;11.48;8.40;;;22.60;55.30;;;;;;5072486;28;20670;-72
2023/06/17 06:03:49;;;;;;;12.93;9.07;;;22.60;55.30;;;;;;5071631;28;20040;-78
2023/06/17 06:06:14;;;;;;;12.98;8.77;;;22.70;55.20;;;;;;5070485;28;20127;-74
2023/06/17 06:08:40;;;;;;;11.00;8.27;;;22.70;55.20;;;;;;5071314;28;20481;-73
2023/06/17 06:11:05;;;;;;;12.65;7.82;;;22.80;55.30;;;;;;5070125;28;20423;-74
2023/06/17 06:13:31;;;;;;;11.65;8.27;;;22.80;55.20;;;;;;5072343;28;20033;-75
2023/06/17 06:15:57;;;;;;;12.15;8.32;;;22.80;55.30;;;;;;5071670;28;20044;-71
2023/06/17 06:18:23;;;;;;;10.52;8.68;;;22.90;55.10;;;;;;5071449;28;20048;-73
2023/06/17 06:20:48;;;;;;;13.10;8.05;;;23.00;55.20;;;;;;5071600;28;20040;-75
2023/06/17 06:23:14;;;;;;;10.68;8.10;;;23.00;55.20;;;;;;5075590;28;20072;-75
2023/06/17 06:25:40;;;;;;;10.15;7.45;;;23.00;55.10;;;;;;5074842;28;20090;-78
2023/06/17 06:28:05;;;;;;;11.55;8.27;;;23.00;55.00;;;;;;5075268;28;20053;-77
2023/06/17 06:30:31;;;;;;;13.10;8.25;;;23.00;54.90;;;;;;5074250;28;20094;-77
2023/06/17 06:32:57;;;;;;;11.40;7.82;;;23.00;54.90;;;;;;5074189;28;20042;-77
2023/06/17 06:35:23;;;;;;;12.40;8.35;;;23.00;54.80;;;;;;5074015;28;20051;-75
2023/06/17 06:37:48;;;;;;;10.52;7.32;;;23.10;54.80;;;;;;5074301;28;20041;-76
2023/06/17 06:40:14;;;;;;;9.55;7.28;;;23.10;55.00;;;;;;5070022;28;20048;-75
2023/06/17 06:42:41;;;;;;;9.57;7.50;;;23.10;54.90;;;;;;5074175;28;20472;-76
2023/06/17 06:45:07;;;;;;;10.57;7.57;;;23.10;54.90;;;;;;5071642;28;20127;-77
2023/06/17 06:47:32;;;;;;;12.75;8.80;;;23.10;54.80;;;;;;5074301;28;20120;-75
2023/06/17 06:49:58;;;;;;;12.05;7.78;;;23.10;55.00;;;;;;5074036;28;20101;-78
2023/06/17 06:52:23;;;;;;;10.85;8.13;;;23.10;55.00;;;;;;5074732;28;20466;-77
2023/06/17 06:54:49;;;;;;;10.68;7.55;;;23.10;54.90;;;;;;5074064;28;20056;-75
2023/06/17 06:57:15;;;;;;;12.15;7.47;;;23.10;54.80;;;;;;5073634;28;20135;-75
2023/06/17 06:59:40;;;;;;;10.30;7.55;;;23.20;54.90;;;;;;5080548;28;20036;-74
2023/06/17 07:02:06;;;;;;;12.55;8.30;;;23.10;54.80;;;;;;5095042;28;20418;-74
2023/06/17 07:04:31;;;;;;;10.48;8.05;;;23.20;54.90;;;;;;5087463;28;20426;-74
2023/06/17 07:06:57;;;;;;;12.13;8.30;;;23.10;54.90;;;;;;5072597;28;20044;-74
2023/06/17 07:09:22;;;;;;;11.40;8.50;;;23.20;55.10;;;;;;5075200;28;20037;-72
2023/06/17 07:11:48;;;;;;;13.63;8.43;;;23.20;55.10;;;;;;5074726;28;20090;-76
2023/06/17 07:14:14;;;;;;;12.35;8.30;;;23.20;55.30;;;;;;5074257;28;20514;-73
2023/06/17 07:16:39;;;;;;;13.80;8.43;;;23.20;55.30;;;;;;5073646;28;20041;-75
2023/06/17 07:19:05;;;;;;;10.25;8.38;;;23.20;55.10;;;;;;5073190;28;20097;-74
2023/06/17 07:21:30;;;;;;;14.70;8.07;;;23.20;55.10;;;;;;5073176;28;20080;-75
2023/06/17 07:23:56;;;;;;;9.77;7.82;;;23.20;55.30;;;;;;5073861;28;20515;-75
2023/06/17 07:26:21;;;;;;;11.40;8.07;;;23.20;55.30;;;;;;5073913;28;20400;-77
2023/06/17 07:28:47;;;;;;;12.73;8.85;;;23.20;55.30;;;;;;5072389;28;20064;-74
2023/06/17 07:31:13;;;;;;;9.55;8.00;;;23.20;55.20;;;;;;5074339;28;20044;-74
2023/06/17 07:33:40;;;;;;;11.73;8.27;;;23.20;55.20;;;;;;5074040;28;20079;-74
2023/06/17 07:36:06;;;;;;;12.15;8.43;;;23.20;55.20;;;;;;5072067;28;20053;-75
2023/06/17 07:38:34;;;;;;;11.00;8.80;;;23.30;55.20;;;;;;5074585;28;20051;-75
2023/06/17 07:41:00;;;;;;;13.27;8.00;;;23.30;55.30;;;;;;5074181;28;20105;-76
2023/06/17 07:43:26;;;;;;;9.93;7.40;;;23.20;55.20;;;;;;5073916;28;20043;-77
2023/06/17 07:45:51;;;;;;;10.90;8.10;;;23.20;55.20;;;;;;5074223;28;20041;-78
2023/06/17 07:48:17;;;;;;;11.32;8.20;;;23.30;55.20;;;;;;5072452;28;20064;-79
2023/06/17 07:50:43;;;;;;;12.27;8.27;;;23.30;55.20;;;;;;5072316;28;20047;-75
2023/06/17 07:53:09;;;;;;;11.70;7.78;;;23.20;55.10;;;;;;5074135;28;20063;-74
2023/06/17 07:55:34;;;;;;;11.70;8.00;;;23.30;55.20;;;;;;5073704;28;20407;-75
2023/06/17 07:58:00;;;;;;;12.45;9.00;;;23.30;55.20;;;;;;5074235;28;20076;-74
2023/06/17 08:00:26;;;;;;;10.10;8.50;;;23.30;55.30;;;;;;5072631;28;20058;-74
2023/06/17 08:02:52;;;;;;;11.93;7.25;;;23.30;55.30;;;;;;5072193;28;20044;-71
2023/06/17 08:05:17;;;;;;;10.32;7.57;;;23.30;56.10;;;;;;5072537;28;20040;-73
2023/06/17 08:07:43;;;;;;;11.80;7.70;;;23.30;55.40;;;;;;5072764;28;20043;-74
2023/06/17 08:10:09;;;;;;;12.48;8.02;;;23.30;55.40;;;;;;5071855;28;20048;-72
2023/06/17 08:12:34;;;;;;;10.60;7.75;;;23.30;55.40;;;;;;5072628;28;20484;-71
2023/06/17 08:15:01;;;;;;;12.18;8.38;;;23.40;55.40;;;;;;5073231;28;20044;-73
2023/06/17 08:17:26;;;;;;;12.50;8.45;;;23.40;55.40;;;;;;5071801;28;20127;-74
2023/06/17 08:19:52;;;;;;;10.57;7.50;;;23.40;55.40;;;;;;5072645;28;20120;-74
2023/06/17 08:22:17;;;;;;;10.30;8.02;;;23.40;55.40;;;;;;5073613;28;20491;-72
2023/06/17 08:24:43;;;;;;;10.43;7.70;;;23.40;55.40;;;;;;5071430;28;20519;-76
2023/06/17 08:27:09;;;;;;;11.77;7.82;;;23.40;55.40;;;;;;5073484;28;20052;-75
2023/06/17 08:29:35;;;;;;;10.20;7.57;;;23.40;55.40;;;;;;5072040;28;20141;-74
2023/06/17 08:32:01;;;;;;;12.35;7.90;;;23.40;55.50;;;;;;5071556;28;20049;-72
2023/06/17 08:34:30;;;;;;;12.68;7.65;;;23.40;56.20;;;;;;5072448;28;20066;-72
2023/06/17 08:36:56;;;;;;;11.48;7.63;;;23.40;55.40;;;;;;5073789;28;20415;-75
2023/06/17 08:39:22;;;;;;;11.82;7.70;;;23.50;55.40;;;;;;5072366;28;20036;-73
2023/06/17 08:41:47;;;;;;;10.43;7.43;;;23.50;55.30;;;;;;5072456;28;20484;-73
2023/06/17 08:44:13;;;;;;;11.48;8.25;;;23.40;55.20;;;;;;5071410;28;20452;-72
2023/06/17 08:46:40;;;;;;;13.25;8.93;;;23.50;55.20;;;;;;5071290;28;20119;-77
2023/06/17 08:49:07;;;;;;;12.48;8.82;;;23.40;55.00;;;;;;5071755;28;20045;-73
2023/06/17 08:51:33;;;;;;;11.63;8.30;;;23.40;55.00;;;;;;5073116;28;20041;-77
2023/06/17 08:53:58;;;;;;;13.00;8.27;;;23.50;55.20;;;;;;5054355;28;20492;-77
2023/06/17 08:56:24;;;;;;;12.43;8.77;;;23.40;55.30;;;;;;5038389;28;20052;-75
2023/06/17 08:58:50;;;;;;;13.77;8.68;;;23.40;55.50;;;;;;5071158;28;20050;-73
2023/06/17 09:01:16;;;;;;;15.15;8.73;;;23.40;55.40;;;;;;5072624;28;20389;-75
2023/06/17 09:03:42;;;;;;;11.10;7.78;;;23.40;55.50;;;;;;5038604;28;20041;-73
2023/06/17 09:06:25;;;;;;;13.23;8.55;;;23.40;55.60;;;;;;5037240;28;20397;-74
2023/06/17 09:08:51;;;;;;;13.18;8.13;;;23.40;55.40;;;;;;5071524;28;20037;-71
2023/06/17 09:11:17;;;;;;;14.55;9.07;;;23.40;55.40;;;;;;5072395;28;20463;-69
2023/06/17 09:13:50;;;;;;;13.98;8.75;;;23.40;55.40;;;;;;5070952;28;20068;-79
2023/06/17 09:16:25;;;;;;;12.18;8.15;;;23.50;55.50;;;;;;5072580;28;20056;-77
2023/06/17 09:19:04;;;;;;;12.13;8.68;;;23.40;55.50;;;;;;5071902;28;20037;-77
2023/06/17 09:21:30;;;;;;;11.73;8.00;;;23.40;55.60;;;;;;5070455;28;20356;-76
2023/06/17 09:23:57;;;;;;;13.10;8.35;;;23.50;55.70;;;;;;5072724;28;20044;-78
2023/06/17 09:26:25;;;;;;;12.40;8.00;;;23.40;55.70;;;;;;5071593;28;20059;-78
2023/06/17 09:28:51;;;;;;;11.90;8.23;;;23.50;55.80;;;;;;5071550;28;20508;-77
2023/06/17 09:31:18;;;;;;;12.60;7.90;;;23.50;55.80;;;;;;5070773;28;20390;-75
2023/06/17 09:33:44;;;;;;;11.20;7.78;;;23.50;55.80;;;;;;5071665;28;20043;-70
2023/06/17 09:36:10;;;;;;;14.13;8.23;;;23.50;55.90;;;;;;5070043;28;20063;-74
2023/06/17 09:38:37;;;;;;;12.50;8.30;;;23.50;55.70;;;;;;5071647;28;20044;-79
2023/06/17 09:41:03;;;;;;;12.63;8.55;;;23.50;55.70;;;;;;5072869;28;20044;-81
2023/06/17 09:43:29;;;;;;;11.23;8.65;;;23.40;55.70;;;;;;5073642;28;20047;-79
2023/06/17 09:46:04;;;;;;;12.85;9.05;;;23.50;55.70;;;;;;5074943;28;20055;-79
2023/06/17 09:48:34;;;;;;;12.32;8.40;;;23.50;55.70;;;;;;5074392;28;20119;-81
2023/06/17 09:51:00;;;;;;;10.07;8.02;;;23.40;55.80;;;;;;5072297;28;20072;-81
2023/06/17 09:53:29;;;;;;;15.68;8.90;;;23.40;55.90;;;;;;5072502;28;20083;-80
2023/06/17 09:55:56;;;;;;;12.30;8.40;;;23.50;56.10;;;;;;5072378;28;20087;-78
2023/06/17 09:58:31;;;;;;;13.10;8.75;;;23.50;56.20;;;;;;5074889;28;20518;-80
2023/06/17 10:00:57;;;;;;;12.73;8.55;;;23.40;56.20;;;;;;5073962;28;20056;-81
2023/06/17 10:03:23;;;;;;;12.30;9.02;;;23.50;56.30;;;;;;5073353;28;20041;-82
2023/06/17 10:06:11;;;;;;;14.43;8.60;;;23.40;56.20;;;;;;5073697;28;20071;-78
2023/06/17 10:08:37;;;;;;;;;;;23.50;56.20;;;;;;5071651;28;20048;-78
2023/06/17 10:11:02;;;;;;;12.40;7.80;;;23.50;55.70;;;;;;5071441;28;19922;-79
2023/06/17 10:13:38;;;;;;;11.27;7.85;;;23.50;55.70;;;;;;5037938;28;20381;-78
2023/06/17 10:16:04;;;;;;;13.55;7.80;;;23.40;55.30;;;;;;5071601;28;20472;-76
2023/06/17 10:18:30;;;;;;;11.15;8.27;;;23.40;55.20;;;;;;5070342;28;20041;-77
2023/06/17 10:20:56;;;;;;;11.38;7.80;;;23.40;55.10;;;;;;5037331;28;20063;-72
2023/06/17 10:23:22;;;;;;;11.93;7.60;;;23.40;55.00;;;;;;5053346;28;20044;-75
2023/06/17 10:25:47;;;;;;;14.10;9.30;;;23.50;55.00;;;;;;5054150;28;20045;-76
2023/06/17 10:28:16;;;;;;;11.65;8.20;;;23.50;55.20;;;;;;5071485;28;20052;-76
2023/06/17 10:30:46;;;;;;;13.75;8.77;;;23.40;55.40;;;;;;5053229;28;20053;-80
2023/06/17 10:33:11;;;;;;;10.52;8.50;;;23.50;55.60;;;;;;5071975;28;20041;-72
2023/06/17 10:35:41;;;;;;;12.10;8.23;;;23.50;55.60;;;;;;5068331;28;20385;-73
2023/06/17 10:38:07;;;;;;;13.25;7.95;;;23.50;55.60;;;;;;5071081;28;20036;-78
2023/06/17 10:40:36;;;;;;;12.07;8.18;;;23.50;55.50;;;;;;5072015;28;20045;-76
2023/06/17 10:43:01;;;;;;;11.95;8.05;;;23.50;55.50;;;;;;5054428;28;20037;-76
2023/06/17 10:45:44;;;;;;;13.00;8.10;;;23.60;55.60;;;;;;5071061;28;20040;-77
2023/06/17 10:48:19;;;;;;;12.27;7.93;;;23.50;55.50;;;;;;5070580;28;20045;-77
2023/06/17 10:50:48;;;;;;;13.65;8.23;;;23.60;55.30;;;;;;5067289;28;20049;-79
2023/06/17 10:53:15;;;;;;;16.63;8.45;;;23.60;55.40;;;;;;5077311;28;20037;-77
2023/06/17 10:55:41;;;;;;;10.77;8.20;;;23.60;55.30;;;;;;5071401;28;20048;-73
2023/06/17 10:58:07;;;;;;;10.48;7.88;;;23.60;55.30;;;;;;5091505;28;20620;-74
2023/06/17 11:00:32;;;;;;;11.85;7.68;;;23.60;55.20;;;;;;5073469;28;20050;-73
2023/06/17 11:02:58;;;;;;;14.05;8.27;;;23.70;55.00;;;;;;5071379;28;20037;-74
2023/06/17 11:05:24;;;;;;;13.90;8.18;;;23.60;55.00;;;;;;5069601;28;20610;-74
2023/06/17 11:07:49;;;;;;;13.48;9.40;;;23.70;55.00;;;;;;5071549;28;20059;-74
2023/06/17 11:10:16;;;;;;;12.20;8.95;;;23.70;55.00;;;;;;5074812;28;20412;-74
2023/06/17 11:12:45;;;;;;;9.68;7.93;;;23.70;55.10;;;;;;5074472;28;20076;-74
2023/06/17 11:15:11;;;;;;;11.18;9.00;;;23.70;55.00;;;;;;5073493;28;20036;-73
2023/06/17 11:17:37;;;;;;;12.43;8.32;;;23.70;54.80;;;;;;5075181;28;20167;-72
2023/06/17 11:20:06;;;;;;;13.23;8.23;;;23.70;54.60;;;;;;5072627;28;20072;-72
2023/06/17 11:22:36;;;;;;;10.35;8.07;;;23.70;54.30;;;;;;5075081;28;20040;-72
2023/06/17 11:25:02;;;;;;;10.35;8.32;;;23.70;54.10;;;;;;5074511;28;20045;-70
2023/06/17 11:27:28;;;;;;;14.27;8.18;;;23.70;54.10;;;;;;5073086;28;20028;-71
2023/06/17 11:29:53;;;;;;;11.75;7.82;;;23.70;54.10;;;;;;5073188;28;20033;-72
2023/06/17 11:32:20;;;;;;;13.32;7.93;;;23.70;54.10;;;;;;5072910;28;20465;-75
2023/06/17 11:34:45;;;;;;;13.18;7.85;;;23.70;54.30;;;;;;5073238;28;20480;-75
2023/06/17 11:37:11;;;;;;;11.10;7.95;;;23.70;54.40;;;;;;5072714;28;20055;-75
2023/06/17 11:39:37;;;;;;;9.77;7.72;;;23.70;54.40;;;;;;5072786;28;20045;-74
2023/06/17 11:42:03;;;;;;;13.15;8.15;;;23.70;54.50;;;;;;5073109;28;20048;-74
2023/06/17 11:44:32;;;;;;;11.32;7.47;;;23.80;54.60;;;;;;5074067;28;20033;-74
2023/06/17 11:47:08;;;;;;;10.50;7.85;;;23.80;54.60;;;;;;5072577;28;20094;-74
2023/06/17 11:49:34;;;;;;;9.32;7.07;;;23.80;54.70;;;;;;5071477;28;20406;-75
2023/06/17 11:52:06;;;;;;;12.13;7.15;;;23.80;54.50;;;;;;5073709;28;20549;-74
2023/06/17 11:54:32;;;;;;;10.90;7.25;;;23.80;54.50;;;;;;5062463;28;20037;-74
2023/06/17 11:56:58;;;;;;;10.45;7.75;;;23.80;54.60;;;;;;5071420;28;20545;-74
2023/06/17 11:59:23;;;;;;;8.82;7.00;;;23.90;54.60;;;;;;5073863;28;20044;-74
2023/06/17 12:01:49;;;;;;;10.95;7.72;;;23.80;54.60;;;;;;5072084;28;20036;-73
2023/06/17 12:04:15;;;;;;;9.32;7.22;;;23.80;54.60;;;;;;5054294;28;20558;-73
2023/06/17 12:06:41;;;;;;;10.85;7.95;;;23.80;54.60;;;;;;5054542;28;20067;-78
2023/06/17 12:09:08;;;;;;;11.68;7.55;;;23.90;54.60;;;;;;5070661;28;20033;-74
2023/06/17 12:11:36;;;;;;;12.15;7.68;;;23.90;54.60;;;;;;5071271;28;20045;-71
2023/06/17 12:14:10;;;;;;;9.13;6.97;;;23.90;54.60;;;;;;5080893;28;20484;-78
2023/06/17 12:16:36;;;;;;;10.65;8.25;;;23.90;54.60;;;;;;5070124;28;20127;-79
2023/06/17 12:19:06;;;;;;;10.43;7.22;;;23.90;54.50;;;;;;5070352;28;20033;-76
2023/06/17 12:21:32;;;;;;;8.93;7.03;;;23.90;54.40;;;;;;5067450;28;20055;-76
2023/06/17 12:23:58;;;;;;;11.13;7.75;;;23.90;54.30;;;;;;5072503;28;20043;-74
2023/06/17 12:26:26;;;;;;;8.85;6.55;;;23.90;54.30;;;;;;5073173;28;20048;-75
2023/06/17 12:28:55;;;;;;;10.70;7.00;;;24.00;54.30;;;;;;5071388;28;20070;-75
2023/06/17 12:31:21;;;;;;;11.93;6.80;;;23.90;54.20;;;;;;5072249;28;20419;-75
2023/06/17 12:33:47;;;;;;;10.32;7.10;;;23.90;54.10;;;;;;5072265;28;20521;-76
2023/06/17 12:36:13;;;;;;;9.95;6.60;;;24.00;54.10;;;;;;5072280;28;20075;-76
2023/06/17 12:38:39;;;;;;;11.02;6.80;;;24.00;54.10;;;;;;5071782;28;20048;-75